createdAt,value
2018-03-02T00:00:11.869Z,9.40
2018-03-02T00:01:11.824Z,12.70
2018-03-02T00:02:11.790Z,11.00
2018-03-02T00:03:11.743Z,10.80
2018-03-02T00:04:11.706Z,10.30
2018-03-02T00:05:11.668Z,10.30
2018-03-02T00:06:11.631Z,10.10
2018-03-02T00:07:11.590Z,12.60
2018-03-02T00:08:11.553Z,10.40
2018-03-02T00:09:11.521Z,9.90
2018-03-02T00:10:11.484Z,9.90
2018-03-02T00:11:11.436Z,11.50
2018-03-02T00:12:11.391Z,10.10
2018-03-02T00:13:11.354Z,11.80
2018-03-02T00:14:11.322Z,10.30
2018-03-02T00:15:11.285Z,8.90
2018-03-02T00:16:11.234Z,12.90
2018-03-02T00:17:11.192Z,10.80
2018-03-02T00:18:11.156Z,11.60
2018-03-02T00:19:11.121Z,9.20
2018-03-02T00:20:11.075Z,10.90
2018-03-02T00:21:11.038Z,13.00
2018-03-02T00:22:10.999Z,12.40
2018-03-02T00:23:10.962Z,12.80
2018-03-02T00:24:10.922Z,10.70
2018-03-02T00:25:10.877Z,10.60
2018-03-02T00:26:10.838Z,10.30
2018-03-02T00:27:10.806Z,11.00
2018-03-02T00:28:10.760Z,13.10
2018-03-02T00:29:10.727Z,10.30
2018-03-02T00:30:10.679Z,11.20
2018-03-02T00:31:10.644Z,15.80
2018-03-02T00:32:10.604Z,11.60
2018-03-02T00:33:10.861Z,11.00
2018-03-02T00:34:10.521Z,13.80
2018-03-02T00:35:10.484Z,11.00
2018-03-02T00:36:10.441Z,11.80
2018-03-02T00:37:10.405Z,12.20
2018-03-02T00:38:10.371Z,12.30
2018-03-02T00:39:10.324Z,12.50
2018-03-02T00:40:10.281Z,12.00
2018-03-02T00:41:10.248Z,11.00
2018-03-02T00:42:10.208Z,13.40
2018-03-02T00:43:10.164Z,12.50
2018-03-02T00:44:10.125Z,11.10
2018-03-02T00:45:10.080Z,11.40
2018-03-02T00:46:10.040Z,12.60
2018-03-02T00:47:10.013Z,13.00
2018-03-02T00:48:10.022Z,12.60
2018-03-02T00:49:09.924Z,11.10
2018-03-02T00:50:09.895Z,11.10
2018-03-02T00:51:09.847Z,11.00
2018-03-02T00:52:09.809Z,12.20
2018-03-02T00:53:09.780Z,13.40
2018-03-02T00:54:09.738Z,11.90
2018-03-02T00:55:09.685Z,13.60
2018-03-02T00:56:09.658Z,12.00
2018-03-02T00:57:09.619Z,12.20
2018-03-02T00:58:09.572Z,14.70
2018-03-02T00:59:09.536Z,14.80
2018-03-02T01:00:09.490Z,12.70
2018-03-02T01:01:09.451Z,12.20
2018-03-02T01:02:09.705Z,13.20
2018-03-02T01:03:09.373Z,14.00
2018-03-02T01:04:09.335Z,15.80
2018-03-02T01:05:09.286Z,15.10
2018-03-02T01:06:09.249Z,12.60
2018-03-02T01:07:09.210Z,13.00
2018-03-02T01:08:09.171Z,14.90
2018-03-02T01:09:09.137Z,16.50
2018-03-02T01:10:09.092Z,14.50
2018-03-02T01:11:09.051Z,14.10
2018-03-02T01:12:09.012Z,14.00
2018-03-02T01:13:08.972Z,13.90
2018-03-02T01:14:08.933Z,14.40
2018-03-02T01:15:08.900Z,13.50
2018-03-02T01:16:08.860Z,15.80
2018-03-02T01:17:08.812Z,13.60
2018-03-02T01:18:08.777Z,16.80
2018-03-02T01:19:08.761Z,15.30
2018-03-02T01:20:08.702Z,13.20
2018-03-02T01:21:08.649Z,14.40
2018-03-02T01:22:08.611Z,14.20
2018-03-02T01:23:08.574Z,14.90
2018-03-02T01:24:08.534Z,15.40
2018-03-02T01:25:08.835Z,13.50
2018-03-02T01:26:08.455Z,15.00
2018-03-02T01:27:08.417Z,17.00
2018-03-02T01:28:08.375Z,14.40
2018-03-02T01:29:08.338Z,16.20
2018-03-02T01:30:08.299Z,15.80
2018-03-02T01:31:08.255Z,13.60
2018-03-02T01:32:08.215Z,15.10
2018-03-02T01:33:08.176Z,15.10
2018-03-02T01:34:08.134Z,15.40
2018-03-02T01:35:08.097Z,14.20
2018-03-02T01:36:08.056Z,13.10
2018-03-02T01:37:08.318Z,15.70
2018-03-02T01:38:07.973Z,16.30
2018-03-02T01:39:07.933Z,15.20
2018-03-02T01:40:07.904Z,16.00
2018-03-02T01:41:07.862Z,15.10
2018-03-02T01:42:07.819Z,14.60
2018-03-02T01:43:08.026Z,15.60
2018-03-02T01:44:07.738Z,14.50
2018-03-02T01:45:07.701Z,13.70
2018-03-02T01:46:07.657Z,15.00
2018-03-02T01:47:07.620Z,15.40
2018-03-02T01:48:07.581Z,14.20
2018-03-02T01:49:07.535Z,17.10
2018-03-02T01:50:07.496Z,16.80
2018-03-02T01:51:07.452Z,16.00
2018-03-02T01:52:07.413Z,18.90
2018-03-02T01:53:07.382Z,18.50
2018-03-02T01:54:07.337Z,15.60
2018-03-02T01:55:07.313Z,13.90
2018-03-02T01:56:07.267Z,14.60
2018-03-02T01:57:07.212Z,19.50
2018-03-02T01:58:07.173Z,17.60
2018-03-02T01:59:07.136Z,14.80
2018-03-02T02:00:07.599Z,16.60
2018-03-02T02:01:07.057Z,19.50
2018-03-02T02:02:07.017Z,16.20
2018-03-02T02:03:06.971Z,15.50
2018-03-02T02:04:06.928Z,17.60
2018-03-02T02:05:06.940Z,16.50
2018-03-02T02:06:07.103Z,16.50
2018-03-02T02:07:06.813Z,19.30
2018-03-02T02:08:06.776Z,17.20
2018-03-02T02:09:06.737Z,16.90
2018-03-02T02:10:06.694Z,18.20
2018-03-02T02:11:06.654Z,17.90
2018-03-02T02:12:06.615Z,16.60
2018-03-02T02:13:06.571Z,18.00
2018-03-02T02:14:06.534Z,16.10
2018-03-02T02:15:06.495Z,15.00
2018-03-02T02:16:06.453Z,19.40
2018-03-02T02:17:06.413Z,19.00
2018-03-02T02:18:06.366Z,18.20
2018-03-02T02:19:06.333Z,16.90
2018-03-02T02:20:06.302Z,18.10
2018-03-02T02:21:06.261Z,16.80
2018-03-02T02:22:06.214Z,17.90
2018-03-02T02:23:06.181Z,20.30
2018-03-02T02:24:06.431Z,16.90
2018-03-02T02:25:06.097Z,17.80
2018-03-02T02:26:06.052Z,19.00
2018-03-02T02:27:06.011Z,18.60
2018-03-02T02:28:05.974Z,16.20
2018-03-02T02:29:05.926Z,17.90
2018-03-02T02:30:05.893Z,17.00
2018-03-02T02:31:05.857Z,18.90
2018-03-02T02:32:05.820Z,15.70
2018-03-02T02:33:05.768Z,20.70
2018-03-02T02:34:05.736Z,16.30
2018-03-02T02:35:05.688Z,17.70
2018-03-02T02:36:05.650Z,17.70
2018-03-02T02:37:05.613Z,15.90
2018-03-02T02:38:05.568Z,15.20
2018-03-02T02:39:05.523Z,16.70
2018-03-02T02:40:05.484Z,17.00
2018-03-02T02:41:05.700Z,18.70
2018-03-02T02:42:05.413Z,16.70
2018-03-02T02:43:05.368Z,19.30
2018-03-02T02:44:05.329Z,15.40
2018-03-02T02:45:05.293Z,17.50
2018-03-02T02:46:05.247Z,17.10
2018-03-02T02:47:05.453Z,15.50
2018-03-02T02:48:05.165Z,17.10
2018-03-02T02:49:05.117Z,20.20
2018-03-02T02:50:05.083Z,16.80
2018-03-02T02:51:05.048Z,17.20
2018-03-02T02:52:05.005Z,15.80
2018-03-02T02:53:04.969Z,17.00
2018-03-02T02:54:04.934Z,17.60
2018-03-02T02:55:04.888Z,14.90
2018-03-02T02:56:04.837Z,16.60
2018-03-02T02:57:04.802Z,17.10
2018-03-02T02:58:04.761Z,16.80
2018-03-02T02:59:05.026Z,19.00
2018-03-02T03:00:04.681Z,18.50
2018-03-02T03:01:04.638Z,17.60
2018-03-02T03:02:04.600Z,18.80
2018-03-02T03:03:04.567Z,15.80
2018-03-02T03:04:04.518Z,17.00
2018-03-02T03:05:04.780Z,17.20
2018-03-02T03:06:04.439Z,18.50
2018-03-02T03:07:04.401Z,18.20
2018-03-02T03:08:04.354Z,18.70
2018-03-02T03:09:04.317Z,17.30
2018-03-02T03:10:04.277Z,17.00
2018-03-02T03:11:04.235Z,16.00
2018-03-02T03:12:04.196Z,17.10
2018-03-02T03:13:04.160Z,17.80
2018-03-02T03:14:04.116Z,16.40
2018-03-02T03:15:04.079Z,17.90
2018-03-02T03:16:04.034Z,17.60
2018-03-02T03:17:03.998Z,15.80
2018-03-02T03:18:03.949Z,21.10
2018-03-02T03:19:03.912Z,20.30
2018-03-02T03:20:03.874Z,17.10
2018-03-02T03:21:03.835Z,17.80
2018-03-02T03:22:04.054Z,18.00
2018-03-02T03:23:03.747Z,17.50
2018-03-02T03:24:03.708Z,18.50
2018-03-02T03:25:03.667Z,17.00
2018-03-02T03:26:03.629Z,20.00
2018-03-02T03:27:03.585Z,20.20
2018-03-02T03:28:03.541Z,18.90
2018-03-02T03:29:03.508Z,16.70
2018-03-02T03:30:03.465Z,18.00
2018-03-02T03:31:03.441Z,18.30
2018-03-02T03:32:03.384Z,15.20
2018-03-02T03:33:03.343Z,18.80
2018-03-02T03:34:03.601Z,20.20
2018-03-02T03:35:03.267Z,18.50
2018-03-02T03:36:03.224Z,18.10
2018-03-02T03:37:03.178Z,20.30
2018-03-02T03:38:03.138Z,19.20
2018-03-02T03:39:03.098Z,19.60
2018-03-02T03:40:03.055Z,17.80
2018-03-02T03:41:03.031Z,18.80
2018-03-02T03:42:02.986Z,19.10
2018-03-02T03:43:02.937Z,16.00
2018-03-02T03:44:02.907Z,18.80
2018-03-02T03:45:02.858Z,19.90
2018-03-02T03:46:03.127Z,21.60
2018-03-02T03:47:02.773Z,17.20
2018-03-02T03:48:02.737Z,22.00
2018-03-02T03:49:02.694Z,20.20
2018-03-02T03:50:02.652Z,21.80
2018-03-02T03:51:02.615Z,18.80
2018-03-02T03:52:02.573Z,19.40
2018-03-02T03:53:02.530Z,20.30
2018-03-02T03:54:02.489Z,21.50
2018-03-02T03:55:02.447Z,19.10
2018-03-02T03:56:02.405Z,18.90
2018-03-02T03:57:02.370Z,24.70
2018-03-02T03:58:02.328Z,19.40
2018-03-02T03:59:02.288Z,24.80
2018-03-02T04:00:02.244Z,18.50
2018-03-02T04:01:02.203Z,20.90
2018-03-02T04:02:02.177Z,21.00
2018-03-02T04:03:02.126Z,17.30
2018-03-02T04:04:02.350Z,19.80
2018-03-02T04:05:02.048Z,18.00
2018-03-02T04:06:02.002Z,20.20
2018-03-02T04:07:01.973Z,20.20
2018-03-02T04:08:01.921Z,21.10
2018-03-02T04:09:01.879Z,19.40
2018-03-02T04:10:02.141Z,20.30
2018-03-02T04:11:01.801Z,19.00
2018-03-02T04:12:01.762Z,20.70
2018-03-02T04:13:01.717Z,21.30
2018-03-02T04:14:01.675Z,18.40
2018-03-02T04:15:01.641Z,21.60
2018-03-02T04:16:01.599Z,20.70
2018-03-02T04:17:01.552Z,19.80
2018-03-02T04:18:01.510Z,17.80
2018-03-02T04:19:01.467Z,19.40
2018-03-02T04:20:01.731Z,17.10
2018-03-02T04:21:01.391Z,20.00
2018-03-02T04:22:01.349Z,21.50
2018-03-02T04:23:01.306Z,20.30
2018-03-02T04:24:01.268Z,19.90
2018-03-02T04:25:01.228Z,21.20
2018-03-02T04:26:01.190Z,17.50
2018-03-02T04:27:01.149Z,21.10
2018-03-02T04:28:01.109Z,18.70
2018-03-02T04:29:01.057Z,21.10
2018-03-02T04:30:01.024Z,19.60
2018-03-02T04:31:00.981Z,21.20
2018-03-02T04:32:01.195Z,20.20
2018-03-02T04:33:00.904Z,20.20
2018-03-02T04:34:00.855Z,21.50
2018-03-02T04:35:00.821Z,21.00
2018-03-02T04:36:00.784Z,20.30
2018-03-02T04:37:00.736Z,20.70
2018-03-02T04:38:01.196Z,19.90
2018-03-02T04:39:00.647Z,21.20
2018-03-02T04:40:00.609Z,23.90
2018-03-02T04:41:00.572Z,21.70
2018-03-02T04:42:00.533Z,21.10
2018-03-02T04:43:00.493Z,22.90
2018-03-02T04:44:00.452Z,19.60
2018-03-02T04:45:00.413Z,20.30
2018-03-02T04:46:00.367Z,24.30
2018-03-02T04:47:00.327Z,23.40
2018-03-02T04:48:00.289Z,22.30
2018-03-02T04:49:00.252Z,22.70
2018-03-02T04:50:00.207Z,23.70
2018-03-02T04:51:00.156Z,20.10
2018-03-02T04:52:00.119Z,20.70
2018-03-02T04:53:00.078Z,24.20
2018-03-02T04:54:00.047Z,22.90
2018-03-02T04:55:00.002Z,21.20
2018-03-02T04:56:00.205Z,22.30
2018-03-02T04:56:59.926Z,23.80
2018-03-02T04:57:59.885Z,24.60
2018-03-02T04:58:59.841Z,22.80
2018-03-02T04:59:59.790Z,22.80
2018-03-02T05:00:59.754Z,22.90
2018-03-02T05:01:59.707Z,22.80
2018-03-02T05:02:59.671Z,24.30
2018-03-02T05:03:59.633Z,23.00
2018-03-02T05:04:59.583Z,23.00
2018-03-02T05:05:59.542Z,21.60
2018-03-02T05:06:59.501Z,24.20
2018-03-02T05:07:59.759Z,29.10
2018-03-02T05:08:59.424Z,23.00
2018-03-02T05:09:59.384Z,21.60
2018-03-02T05:10:59.340Z,23.20
2018-03-02T05:11:59.298Z,25.80
2018-03-02T05:12:59.265Z,21.00
2018-03-02T05:13:59.225Z,24.80
2018-03-02T05:14:59.189Z,24.30
2018-03-02T05:15:59.141Z,22.50
2018-03-02T05:16:59.101Z,23.20
2018-03-02T05:17:59.048Z,23.20
2018-03-02T05:18:59.010Z,23.40
2018-03-02T05:19:59.269Z,24.20
2018-03-02T05:20:58.937Z,29.90
2018-03-02T05:21:58.886Z,27.70
2018-03-02T05:22:58.858Z,25.30
2018-03-02T05:23:58.808Z,22.90
2018-03-02T05:24:58.770Z,23.50
2018-03-02T05:25:58.724Z,25.10
2018-03-02T05:26:58.684Z,25.10
2018-03-02T05:27:58.637Z,25.50
2018-03-02T05:28:58.612Z,25.00
2018-03-02T05:29:58.559Z,26.00
2018-03-02T05:30:58.523Z,25.80
2018-03-02T05:31:58.479Z,23.90
2018-03-02T05:32:58.440Z,22.60
2018-03-02T05:33:58.392Z,22.60
2018-03-02T05:34:58.369Z,25.00
2018-03-02T05:35:58.321Z,26.60
2018-03-02T05:36:58.271Z,24.60
2018-03-02T05:37:58.230Z,26.10
2018-03-02T05:38:58.185Z,26.80
2018-03-02T05:39:58.152Z,28.50
2018-03-02T05:40:58.110Z,29.80
2018-03-02T05:41:58.073Z,25.90
2018-03-02T05:42:58.022Z,28.60
2018-03-02T05:43:57.986Z,28.40
2018-03-02T05:44:57.949Z,26.70
2018-03-02T05:45:57.909Z,28.80
2018-03-02T05:46:57.864Z,24.70
2018-03-02T05:47:58.121Z,23.50
2018-03-02T05:48:57.773Z,28.30
2018-03-02T05:49:57.743Z,24.70
2018-03-02T05:50:57.696Z,25.70
2018-03-02T05:51:57.667Z,23.80
2018-03-02T05:52:57.612Z,30.30
2018-03-02T05:53:57.870Z,25.10
2018-03-02T05:54:57.535Z,24.30
2018-03-02T05:55:57.493Z,27.20
2018-03-02T05:56:57.452Z,25.80
2018-03-02T05:57:57.412Z,28.00
2018-03-02T05:58:57.372Z,25.30
2018-03-02T05:59:57.326Z,25.10
2018-03-02T06:00:57.292Z,25.70
2018-03-02T06:01:57.243Z,26.00
2018-03-02T06:02:57.206Z,25.80
2018-03-02T06:03:57.163Z,25.70
2018-03-02T06:04:57.117Z,24.90
2018-03-02T06:05:57.080Z,22.90
2018-03-02T06:06:57.052Z,25.10
2018-03-02T06:07:56.995Z,27.20
2018-03-02T06:08:56.963Z,27.40
2018-03-02T06:09:56.919Z,25.60
2018-03-02T06:10:56.877Z,24.20
2018-03-02T06:11:56.839Z,28.80
2018-03-02T06:12:56.793Z,30.60
2018-03-02T06:13:56.750Z,26.50
2018-03-02T06:14:56.719Z,30.80
2018-03-02T06:15:56.678Z,27.30
2018-03-02T06:16:56.626Z,23.30
2018-03-02T06:17:56.588Z,23.90
2018-03-02T06:18:56.543Z,25.40
2018-03-02T06:19:56.500Z,21.60
2018-03-02T06:20:56.463Z,25.50
2018-03-02T06:21:56.427Z,24.60
2018-03-02T06:22:56.379Z,25.10
2018-03-02T06:23:56.341Z,25.50
2018-03-02T06:24:56.305Z,23.40
2018-03-02T06:25:56.259Z,24.20
2018-03-02T06:26:56.219Z,23.00
2018-03-02T06:27:56.179Z,25.00
2018-03-02T06:28:56.134Z,24.30
2018-03-02T06:29:56.391Z,22.50
2018-03-02T06:30:56.052Z,26.50
2018-03-02T06:31:56.017Z,24.50
2018-03-02T06:32:55.973Z,25.70
2018-03-02T06:33:55.937Z,24.30
2018-03-02T06:34:55.888Z,29.10
2018-03-02T06:35:55.857Z,24.30
2018-03-02T06:36:55.809Z,26.30
2018-03-02T06:37:55.777Z,25.00
2018-03-02T06:38:55.730Z,24.60
2018-03-02T06:39:55.691Z,25.20
2018-03-02T06:40:55.649Z,22.90
2018-03-02T06:41:55.610Z,24.90
2018-03-02T06:42:55.569Z,23.90
2018-03-02T06:43:55.536Z,27.80
2018-03-02T06:44:55.485Z,26.00
2018-03-02T06:45:55.445Z,25.30
2018-03-02T06:46:55.409Z,25.90
2018-03-02T06:47:55.367Z,26.90
2018-03-02T06:48:55.324Z,30.20
2018-03-02T06:49:55.286Z,25.40
2018-03-02T06:50:55.242Z,25.70
2018-03-02T06:51:55.203Z,29.80
2018-03-02T06:52:55.172Z,27.90
2018-03-02T06:53:55.131Z,28.00
2018-03-02T06:54:55.084Z,25.70
2018-03-02T06:55:55.049Z,24.30
2018-03-02T06:56:55.013Z,27.10
2018-03-02T06:57:54.970Z,27.40
2018-03-02T06:58:54.932Z,24.90
2018-03-02T06:59:54.896Z,24.70
2018-03-02T07:00:54.853Z,26.10
2018-03-02T07:01:54.817Z,25.50
2018-03-02T07:02:54.781Z,27.00
2018-03-02T07:03:54.745Z,26.50
2018-03-02T07:04:54.704Z,26.10
2018-03-02T07:05:54.655Z,25.90
2018-03-02T07:06:54.624Z,24.80
2018-03-02T07:07:54.579Z,28.70
2018-03-02T07:08:54.546Z,25.40
2018-03-02T07:09:54.506Z,26.60
2018-03-02T07:10:54.472Z,25.50
2018-03-02T07:11:54.426Z,23.90
2018-03-02T07:12:54.398Z,25.70
2018-03-02T07:13:54.353Z,23.90
2018-03-02T07:14:54.314Z,25.80
2018-03-02T07:15:54.277Z,25.80
2018-03-02T07:16:54.244Z,26.60
2018-03-02T07:17:54.195Z,29.70
2018-03-02T07:18:54.170Z,25.10
2018-03-02T07:19:54.130Z,26.10
2018-03-02T07:20:54.085Z,26.40
2018-03-02T07:21:54.049Z,26.50
2018-03-02T07:22:54.086Z,29.40
2018-03-02T07:23:53.975Z,29.70
2018-03-02T07:24:53.935Z,28.60
2018-03-02T07:25:53.897Z,24.60
2018-03-02T07:26:53.861Z,29.00
2018-03-02T07:27:53.827Z,29.80
2018-03-02T07:28:53.792Z,24.60
2018-03-02T07:29:53.755Z,29.90
2018-03-02T07:30:53.713Z,33.20
2018-03-02T07:31:53.673Z,27.30
2018-03-02T07:32:53.631Z,24.70
2018-03-02T07:33:53.596Z,27.90
2018-03-02T07:34:53.572Z,29.80
2018-03-02T07:35:53.528Z,31.20
2018-03-02T07:36:53.493Z,32.00
2018-03-02T07:37:53.458Z,30.10
2018-03-02T07:38:53.420Z,26.40
2018-03-02T07:39:53.399Z,29.10
2018-03-02T07:40:53.345Z,25.00
2018-03-02T07:41:53.316Z,30.00
2018-03-02T07:42:53.276Z,31.10
2018-03-02T07:43:53.237Z,29.10
2018-03-02T07:44:53.214Z,31.10
2018-03-02T07:45:53.171Z,28.10
2018-03-02T07:46:53.134Z,31.60
2018-03-02T07:47:53.106Z,33.60
2018-03-02T07:48:53.061Z,31.80
2018-03-02T07:49:53.026Z,29.50
2018-03-02T07:50:52.995Z,27.90
2018-03-02T07:51:52.962Z,32.80
2018-03-02T07:52:52.919Z,26.60
2018-03-02T07:53:52.886Z,26.70
2018-03-02T07:54:52.853Z,27.60
2018-03-02T07:55:52.818Z,28.00
2018-03-02T07:56:52.787Z,32.00
2018-03-02T07:57:52.761Z,27.80
2018-03-02T07:58:52.722Z,31.60
2018-03-02T07:59:52.691Z,26.60
2018-03-02T08:00:52.650Z,27.00
2018-03-02T08:01:52.621Z,29.30
2018-03-02T08:02:52.582Z,29.50
2018-03-02T08:03:52.848Z,29.70
2018-03-02T08:04:52.506Z,27.00
2018-03-02T08:05:52.477Z,30.30
2018-03-02T08:06:52.447Z,29.20
2018-03-02T08:07:52.413Z,29.20
2018-03-02T08:08:52.377Z,33.10
2018-03-02T08:09:52.348Z,29.80
2018-03-02T08:10:52.311Z,29.20
2018-03-02T08:11:52.274Z,31.00
2018-03-02T08:12:52.253Z,31.50
2018-03-02T08:13:52.210Z,29.70
2018-03-02T08:14:52.183Z,30.10
2018-03-02T08:15:52.153Z,27.80
2018-03-02T08:16:52.116Z,31.00
2018-03-02T08:17:52.083Z,27.90
2018-03-02T08:18:52.049Z,29.30
2018-03-02T08:19:52.008Z,28.60
2018-03-02T08:20:51.998Z,29.70
2018-03-02T08:21:51.953Z,26.70
2018-03-02T08:22:51.936Z,35.40
2018-03-02T08:23:51.884Z,30.60
2018-03-02T08:24:51.850Z,26.70
2018-03-02T08:25:51.816Z,32.30
2018-03-02T08:26:51.786Z,32.10
2018-03-02T08:27:51.752Z,31.20
2018-03-02T08:28:51.712Z,30.40
2018-03-02T08:29:51.683Z,30.70
2018-03-02T08:30:51.655Z,28.80
2018-03-02T08:31:51.624Z,31.80
2018-03-02T08:32:51.595Z,30.00
2018-03-02T08:33:51.559Z,29.00
2018-03-02T08:34:51.524Z,31.90
2018-03-02T08:35:51.490Z,30.30
2018-03-02T08:36:51.462Z,32.20
2018-03-02T08:37:51.439Z,30.40
2018-03-02T08:38:51.398Z,32.90
2018-03-02T08:39:51.362Z,36.60
2018-03-02T08:40:51.335Z,32.70
2018-03-02T08:41:51.310Z,30.00
2018-03-02T08:42:51.284Z,30.70
2018-03-02T08:43:51.246Z,28.10
2018-03-02T08:44:51.456Z,32.70
2018-03-02T08:45:51.175Z,35.40
2018-03-02T08:46:51.186Z,35.20
2018-03-02T08:47:51.117Z,39.70
2018-03-02T08:48:51.082Z,27.90
2018-03-02T08:49:51.054Z,29.60
2018-03-02T08:50:51.020Z,33.60
2018-03-02T08:51:50.993Z,28.30
2018-03-02T08:52:50.963Z,31.50
2018-03-02T08:53:50.958Z,31.10
2018-03-02T08:54:50.901Z,31.30
2018-03-02T08:55:50.869Z,28.10
2018-03-02T08:56:50.855Z,29.70
2018-03-02T08:57:50.828Z,33.60
2018-03-02T08:58:50.778Z,30.70
2018-03-02T08:59:50.777Z,32.10
2018-03-02T09:00:50.715Z,31.60
2018-03-02T09:01:50.688Z,31.40
2018-03-02T09:02:50.665Z,27.90
2018-03-02T09:03:50.632Z,30.50
2018-03-02T09:04:50.594Z,29.70
2018-03-02T09:05:50.568Z,29.40
2018-03-02T09:06:50.544Z,31.10
2018-03-02T09:07:50.509Z,32.40
2018-03-02T09:08:50.484Z,34.50
2018-03-02T09:09:50.451Z,27.20
2018-03-02T09:10:50.420Z,29.90
2018-03-02T09:11:50.417Z,30.20
2018-03-02T09:12:50.356Z,30.60
2018-03-02T09:13:50.333Z,30.50
2018-03-02T09:14:50.553Z,27.70
2018-03-02T09:15:50.274Z,25.80
2018-03-02T09:16:50.235Z,27.50
2018-03-02T09:17:50.213Z,26.30
2018-03-02T09:18:50.188Z,31.20
2018-03-02T09:19:50.153Z,30.30
2018-03-02T09:20:50.114Z,32.10
2018-03-02T09:21:50.093Z,33.40
2018-03-02T09:22:50.057Z,30.00
2018-03-02T09:23:50.037Z,33.50
2018-03-02T09:24:50.005Z,28.70
2018-03-02T09:25:49.975Z,34.20
2018-03-02T09:26:49.938Z,27.40
2018-03-02T09:27:49.905Z,29.70
2018-03-02T09:28:49.886Z,28.80
2018-03-02T09:29:49.854Z,29.80
2018-03-02T09:30:49.825Z,31.70
2018-03-02T09:31:49.794Z,29.00
2018-03-02T09:32:49.759Z,33.40
2018-03-02T09:33:49.733Z,25.40
2018-03-02T09:34:49.707Z,29.40
2018-03-02T09:35:49.674Z,31.90
2018-03-02T09:36:49.643Z,29.20
2018-03-02T09:37:49.614Z,33.00
2018-03-02T09:38:49.582Z,33.80
2018-03-02T09:39:49.564Z,31.00
2018-03-02T09:40:49.528Z,30.60
2018-03-02T09:41:49.499Z,33.10
2018-03-02T09:42:49.486Z,33.60
2018-03-02T09:43:49.436Z,27.00
2018-03-02T09:44:49.666Z,29.40
2018-03-02T09:45:49.388Z,33.40
2018-03-02T09:46:49.355Z,29.60
2018-03-02T09:47:49.321Z,27.70
2018-03-02T09:48:49.295Z,31.00
2018-03-02T09:49:49.263Z,27.50
2018-03-02T09:50:49.236Z,29.10
2018-03-02T09:51:49.210Z,30.30
2018-03-02T09:52:49.179Z,24.80
2018-03-02T09:53:49.144Z,24.40
2018-03-02T09:54:49.122Z,26.90
2018-03-02T09:55:49.105Z,27.80
2018-03-02T09:56:49.063Z,27.50
2018-03-02T09:57:49.038Z,29.80
2018-03-02T09:58:49.038Z,26.40
2018-03-02T09:59:48.978Z,24.80
2018-03-02T10:00:48.948Z,27.80
2018-03-02T10:01:48.917Z,25.70
2018-03-02T10:02:49.196Z,27.10
2018-03-02T10:03:48.860Z,24.40
2018-03-02T10:04:48.830Z,24.20
2018-03-02T10:05:48.799Z,25.20
2018-03-02T10:06:48.786Z,25.80
2018-03-02T10:07:48.751Z,31.20
2018-03-02T10:08:48.719Z,25.00
2018-03-02T10:09:48.685Z,29.30
2018-03-02T10:10:48.658Z,25.20
2018-03-02T10:11:48.653Z,26.20
2018-03-02T10:12:48.603Z,24.90
2018-03-02T10:13:48.576Z,30.80
2018-03-02T10:14:48.569Z,23.70
2018-03-02T10:15:48.524Z,24.30
2018-03-02T10:16:48.487Z,26.50
2018-03-02T10:17:48.463Z,22.20
2018-03-02T10:18:48.441Z,25.10
2018-03-02T10:19:48.402Z,21.10
2018-03-02T10:20:48.376Z,27.10
2018-03-02T10:21:48.360Z,22.60
2018-03-02T10:22:48.325Z,20.40
2018-03-02T10:23:48.282Z,25.30
2018-03-02T10:24:48.270Z,26.60
2018-03-02T10:25:48.230Z,27.40
2018-03-02T10:26:48.205Z,24.20
2018-03-02T10:27:48.175Z,26.20
2018-03-02T10:28:48.146Z,25.40
2018-03-02T10:29:48.116Z,25.90
2018-03-02T10:30:48.092Z,26.00
2018-03-02T10:31:48.072Z,24.00
2018-03-02T10:32:48.027Z,23.20
2018-03-02T10:33:48.003Z,27.20
2018-03-02T10:34:47.992Z,25.30
2018-03-02T10:35:47.948Z,22.20
2018-03-02T10:36:48.168Z,25.10
2018-03-02T10:37:48.003Z,24.80
2018-03-02T10:38:47.859Z,23.60
2018-03-02T10:39:47.846Z,26.20
2018-03-02T10:40:47.810Z,28.70
2018-03-02T10:41:47.773Z,29.70
2018-03-02T10:42:47.748Z,22.20
2018-03-02T10:43:47.715Z,26.10
2018-03-02T10:44:47.695Z,24.30
2018-03-02T10:45:47.661Z,19.40
2018-03-02T10:46:47.630Z,18.80
2018-03-02T10:47:47.606Z,18.90
2018-03-02T10:48:47.573Z,21.70
2018-03-02T10:49:47.795Z,25.00
2018-03-02T10:50:47.511Z,21.60
2018-03-02T10:51:47.491Z,26.20
2018-03-02T10:52:47.460Z,22.50
2018-03-02T10:53:47.434Z,23.80
2018-03-02T10:54:47.410Z,26.70
2018-03-02T10:55:47.376Z,22.90
2018-03-02T10:56:47.344Z,19.20
2018-03-02T10:57:47.320Z,21.30
2018-03-02T10:58:47.290Z,23.10
2018-03-02T10:59:47.264Z,22.80
2018-03-02T11:00:47.234Z,19.90
2018-03-02T11:01:47.206Z,21.10
2018-03-02T11:02:47.190Z,22.40
2018-03-02T11:03:47.155Z,20.10
2018-03-02T11:04:47.118Z,20.60
2018-03-02T11:05:47.111Z,20.80
2018-03-02T11:06:47.064Z,20.90
2018-03-02T11:07:47.034Z,27.30
2018-03-02T11:08:47.017Z,27.40
2018-03-02T11:09:46.983Z,21.90
2018-03-02T11:10:46.972Z,20.80
2018-03-02T11:11:46.925Z,21.00
2018-03-02T11:12:46.906Z,23.60
2018-03-02T11:13:46.886Z,20.60
2018-03-02T11:14:46.846Z,19.80
2018-03-02T11:15:46.831Z,23.90
2018-03-02T11:16:46.787Z,23.90
2018-03-02T11:17:46.766Z,20.90
2018-03-02T11:18:46.739Z,21.00
2018-03-02T11:19:46.721Z,22.60
2018-03-02T11:20:46.686Z,23.10
2018-03-02T11:21:46.659Z,20.10
2018-03-02T11:22:46.630Z,20.00
2018-03-02T11:23:46.604Z,21.80
2018-03-02T11:24:46.583Z,21.10
2018-03-02T11:25:46.806Z,17.90
2018-03-02T11:26:46.528Z,19.60
2018-03-02T11:27:46.500Z,20.80
2018-03-02T11:28:46.478Z,23.50
2018-03-02T11:29:46.461Z,20.00
2018-03-02T11:30:46.422Z,20.00
2018-03-02T11:31:46.405Z,24.00
2018-03-02T11:32:46.365Z,21.30
2018-03-02T11:33:46.344Z,18.50
2018-03-02T11:34:46.314Z,17.80
2018-03-02T11:35:46.293Z,19.60
2018-03-02T11:36:46.281Z,17.90
2018-03-02T11:37:46.229Z,20.30
2018-03-02T11:38:46.210Z,20.30
2018-03-02T11:39:46.175Z,19.60
2018-03-02T11:40:46.157Z,18.90
2018-03-02T11:41:46.128Z,23.50
2018-03-02T11:42:46.098Z,23.10
2018-03-02T11:43:46.085Z,18.70
2018-03-02T11:44:46.049Z,19.00
2018-03-02T11:45:46.029Z,21.50
2018-03-02T11:46:46.001Z,20.00
2018-03-02T11:47:45.969Z,18.10
2018-03-02T11:48:45.941Z,21.80
2018-03-02T11:49:45.914Z,21.90
2018-03-02T11:50:45.884Z,25.60
2018-03-02T11:51:45.865Z,23.00
2018-03-02T11:52:45.883Z,19.30
2018-03-02T11:53:45.806Z,22.20
2018-03-02T11:54:46.029Z,20.90
2018-03-02T11:55:45.750Z,23.10
2018-03-02T11:56:45.724Z,20.90
2018-03-02T11:57:45.700Z,20.20
2018-03-02T11:58:45.673Z,17.80
2018-03-02T11:59:45.645Z,18.50
2018-03-02T12:00:45.628Z,20.50
2018-03-02T12:01:45.594Z,18.90
2018-03-02T12:02:45.572Z,18.50
2018-03-02T12:03:45.544Z,18.20
2018-03-02T12:04:45.515Z,19.10
2018-03-02T12:05:45.486Z,18.60
2018-03-02T12:06:45.466Z,19.90
2018-03-02T12:07:45.436Z,20.80
2018-03-02T12:08:45.407Z,16.50
2018-03-02T12:09:45.378Z,18.90
2018-03-02T12:10:45.351Z,21.40
2018-03-02T12:11:45.329Z,23.60
2018-03-02T12:12:45.299Z,19.10
2018-03-02T12:13:45.286Z,22.40
2018-03-02T12:14:45.243Z,19.10
2018-03-02T12:15:45.216Z,21.50
2018-03-02T12:16:45.253Z,20.20
2018-03-02T12:17:45.162Z,19.90
2018-03-02T12:18:45.390Z,19.20
2018-03-02T12:19:45.111Z,17.80
2018-03-02T12:20:45.079Z,16.70
2018-03-02T12:21:45.056Z,20.70
2018-03-02T12:22:45.040Z,17.00
2018-03-02T12:23:45.006Z,18.90
2018-03-02T12:24:44.966Z,17.50
2018-03-02T12:25:44.940Z,19.00
2018-03-02T12:26:44.945Z,20.30
2018-03-02T12:27:44.886Z,20.30
2018-03-02T12:28:44.867Z,17.00
2018-03-02T12:29:44.837Z,17.90
2018-03-02T12:30:44.809Z,19.80
2018-03-02T12:31:44.781Z,15.30
2018-03-02T12:32:44.759Z,19.00
2018-03-02T12:33:44.732Z,17.40
2018-03-02T12:34:44.693Z,20.40
2018-03-02T12:35:44.666Z,20.50
2018-03-02T12:36:44.660Z,15.90
2018-03-02T12:37:44.611Z,17.50
2018-03-02T12:38:44.865Z,16.50
2018-03-02T12:39:44.552Z,20.40
2018-03-02T12:40:44.536Z,19.80
2018-03-02T12:41:44.502Z,18.80
2018-03-02T12:42:44.477Z,16.50
2018-03-02T12:43:44.455Z,19.10
2018-03-02T12:44:44.408Z,17.20
2018-03-02T12:45:44.381Z,17.60
2018-03-02T12:46:44.359Z,20.00
2018-03-02T12:47:44.331Z,18.40
2018-03-02T12:48:44.305Z,18.10
2018-03-02T12:49:44.273Z,19.90
2018-03-02T12:50:44.242Z,16.10
2018-03-02T12:51:44.219Z,17.50